Time;durP1;ratioP1;P1;durP2;ratioP2;P2;SDS_P1;SDS_P2;PMS_P1;PMS_P2;Temp;Humidity;BMP_temperature;BMP_pressure;BME280_temperature;BME280_humidity;BME280_pressure;Samples;Min_cycle;Max_cycle;Signal;HPM_P1;HPM_P2
2024/02/18 00:00:35;;;;;;;13.27;11.35;;;;;;;;;;10245999;28;20080;-62
2024/02/18 00:05:34;;;;;;;14.50;11.27;;;;;;;;;;10252315;28;20572;-62
2024/02/18 00:10:34;;;;;;;15.60;12.27;;;;;;;;;;10257803;28;20506;-63
2024/02/18 00:15:32;;;;;;;13.80;11.48;;;;;;;;;;10256118;28;20076;-62
2024/02/18 00:20:30;;;;;;;12.65;10.73;;;;;;;;;;10257782;28;20077;-61
2024/02/18 00:25:29;;;;;;;16.17;12.13;;;;;;;;;;10257472;28;20088;-62
2024/02/18 00:30:28;;;;;;;14.98;11.63;;;;;;;;;;10256895;28;20064;-62
2024/02/18 00:35:27;;;;;;;12.95;11.52;;;;;;;;;;10252336;28;20084;-63
2024/02/18 00:40:25;;;;;;;12.82;11.48;;;;;;;;;;10257968;28;20510;-61
2024/02/18 00:45:23;;;;;;;17.20;10.50;;;;;;;;;;10258801;28;20499;-62
2024/02/18 00:50:23;;;;;;;13.70;11.60;;;;;;;;;;10258700;28;20068;-63
2024/02/18 00:55:21;;;;;;;15.02;11.27;;;;;;;;;;10254958;28;20070;-62
2024/02/18 01:00:20;;;;;;;13.23;11.43;;;;;;;;;;10257516;28;20080;-62
2024/02/18 01:05:18;;;;;;;14.70;11.32;;;;;;;;;;10254066;28;20067;-63
2024/02/18 01:10:18;;;;;;;13.27;11.88;;;;;;;;;;10255247;28;20076;-62
2024/02/18 01:15:16;;;;;;;13.93;12.07;;;;;;;;;;10254343;28;20065;-62
2024/02/18 01:20:15;;;;;;;14.70;10.95;;;;;;;;;;10260015;28;20085;-63
2024/02/18 01:25:13;;;;;;;16.25;12.20;;;;;;;;;;10256531;28;20089;-62
2024/02/18 01:30:13;;;;;;;13.77;11.65;;;;;;;;;;10255353;28;20099;-63
2024/02/18 01:35:14;;;;;;;17.17;12.07;;;;;;;;;;10250871;28;20077;-63
2024/02/18 01:40:13;;;;;;;14.48;12.20;;;;;;;;;;10254884;28;20079;-63
2024/02/18 01:45:12;;;;;;;15.50;12.07;;;;;;;;;;10251596;28;20466;-63
2024/02/18 01:50:11;;;;;;;13.80;11.68;;;;;;;;;;10255708;28;20081;-63
2024/02/18 01:55:10;;;;;;;14.25;11.80;;;;;;;;;;10249153;28;20073;-63
2024/02/18 02:00:12;;;;;;;16.58;12.25;;;;;;;;;;10252457;28;20083;-63
2024/02/18 02:05:13;;;;;;;14.35;11.82;;;;;;;;;;10250920;28;20069;-63
2024/02/18 02:10:14;;;;;;;11.95;10.75;;;;;;;;;;10253534;28;20084;-63
2024/02/18 02:15:13;;;;;;;13.48;11.23;;;;;;;;;;10247615;28;20451;-62
2024/02/18 02:20:12;;;;;;;14.35;12.85;;;;;;;;;;10256135;28;20084;-63
2024/02/18 02:25:13;;;;;;;12.25;10.82;;;;;;;;;;10253772;28;20085;-63
2024/02/18 02:30:13;;;;;;;13.05;11.65;;;;;;;;;;10255745;28;20077;-63
2024/02/18 02:35:12;;;;;;;15.85;12.35;;;;;;;;;;10252635;28;20331;-63
2024/02/18 02:40:11;;;;;;;16.33;12.98;;;;;;;;;;10254256;28;20076;-64
2024/02/18 02:45:10;;;;;;;15.75;12.32;;;;;;;;;;10252093;28;20079;-63
2024/02/18 02:50:10;;;;;;;17.60;13.48;;;;;;;;;;10250767;28;20073;-62
2024/02/18 02:55:09;;;;;;;13.48;10.95;;;;;;;;;;10251019;28;20486;-62
2024/02/18 03:00:10;;;;;;;16.10;12.95;;;;;;;;;;10252820;28;20083;-62
2024/02/18 03:05:10;;;;;;;12.52;11.23;;;;;;;;;;10251261;28;20077;-63
2024/02/18 03:10:10;;;;;;;13.77;11.45;;;;;;;;;;10249302;28;20076;-62
2024/02/18 03:15:09;;;;;;;16.48;11.25;;;;;;;;;;10249424;28;20081;-63
2024/02/18 03:20:10;;;;;;;13.93;11.73;;;;;;;;;;10250940;28;20083;-62
2024/02/18 03:25:10;;;;;;;16.08;12.85;;;;;;;;;;10249790;28;20559;-62
2024/02/18 03:30:09;;;;;;;13.35;11.20;;;;;;;;;;10250133;28;20518;-62
2024/02/18 03:35:07;;;;;;;14.25;12.27;;;;;;;;;;10250117;28;20073;-62
2024/02/18 03:40:06;;;;;;;15.68;12.02;;;;;;;;;;10248535;28;20079;-62
2024/02/18 03:45:07;;;;;;;14.00;11.50;;;;;;;;;;10258616;28;20081;-62
2024/02/18 03:50:07;;;;;;;15.13;11.95;;;;;;;;;;10258189;28;20513;-62
2024/02/18 03:55:05;;;;;;;16.27;12.85;;;;;;;;;;10258255;28;20076;-62
2024/02/18 04:00:05;;;;;;;15.15;13.20;;;;;;;;;;10252875;28;20525;-62
2024/02/18 04:05:05;;;;;;;15.45;13.20;;;;;;;;;;10258809;28;20080;-62
2024/02/18 04:10:04;;;;;;;17.23;13.63;;;;;;;;;;10257028;28;20073;-62
2024/02/18 04:15:03;;;;;;;17.80;14.55;;;;;;;;;;10257223;28;20069;-62
2024/02/18 04:20:02;;;;;;;20.77;14.73;;;;;;;;;;10259240;28;20490;-62
2024/02/18 04:25:02;;;;;;;17.73;14.73;;;;;;;;;;10256327;28;20481;-62
2024/02/18 04:30:00;;;;;;;19.60;14.20;;;;;;;;;;10258768;28;20072;-62
2024/02/18 04:34:58;;;;;;;20.08;15.20;;;;;;;;;;10255544;28;20065;-63
2024/02/18 04:39:57;;;;;;;17.48;13.93;;;;;;;;;;10255185;28;20517;-62
2024/02/18 04:44:57;;;;;;;21.23;15.68;;;;;;;;;;10254596;28;20084;-62
2024/02/18 04:49:55;;;;;;;19.35;15.57;;;;;;;;;;10255993;28;20139;-62
2024/02/18 04:54:54;;;;;;;16.27;13.93;;;;;;;;;;10256054;28;20061;-63
2024/02/18 04:59:52;;;;;;;17.35;14.20;;;;;;;;;;10253216;28;20064;-63
2024/02/18 05:04:52;;;;;;;20.20;16.27;;;;;;;;;;10259447;28;20266;-63
2024/02/18 05:09:50;;;;;;;20.38;16.15;;;;;;;;;;10257990;28;20139;-64
2024/02/18 05:14:48;;;;;;;18.67;14.70;;;;;;;;;;10254981;28;20068;-63
2024/02/18 05:19:47;;;;;;;19.95;15.23;;;;;;;;;;10252599;28;20076;-63
2024/02/18 05:24:48;;;;;;;20.02;15.13;;;;;;;;;;10254929;28;20077;-62
2024/02/18 05:29:46;;;;;;;20.35;16.10;;;;;;;;;;10256585;28;20096;-62
2024/02/18 05:34:44;;;;;;;21.80;16.65;;;;;;;;;;10253741;28;20069;-62
2024/02/18 05:39:42;;;;;;;20.77;16.13;;;;;;;;;;10252219;28;20068;-62
2024/02/18 05:44:42;;;;;;;22.73;16.83;;;;;;;;;;10254705;28;20083;-63
2024/02/18 05:49:41;;;;;;;24.55;16.92;;;;;;;;;;10256239;28;20724;-62
2024/02/18 05:54:41;;;;;;;25.50;17.73;;;;;;;;;;10252842;28;20081;-63
2024/02/18 05:59:40;;;;;;;21.40;17.30;;;;;;;;;;10251156;28;20109;-63
2024/02/18 06:04:39;;;;;;;26.45;21.50;;;;;;;;;;10248602;28;20073;-63
2024/02/18 06:09:38;;;;;;;27.20;21.88;;;;;;;;;;10251420;28;20077;-63
2024/02/18 06:14:36;;;;;;;23.75;17.95;;;;;;;;;;10254342;28;20073;-63
2024/02/18 06:19:34;;;;;;;23.83;18.02;;;;;;;;;;10252664;28;20073;-63
2024/02/18 06:24:34;;;;;;;24.10;17.90;;;;;;;;;;10253442;28;20080;-62
2024/02/18 06:29:32;;;;;;;21.95;17.73;;;;;;;;;;10250390;28;20980;-62
2024/02/18 06:34:30;;;;;;;23.05;17.25;;;;;;;;;;10253937;28;20095;-63
2024/02/18 06:39:29;;;;;;;26.50;18.60;;;;;;;;;;10257462;28;20076;-63
2024/02/18 06:44:30;;;;;;;25.63;18.67;;;;;;;;;;10253636;28;20069;-62
2024/02/18 06:49:28;;;;;;;24.35;18.48;;;;;;;;;;10254919;28;20084;-62
2024/02/18 06:54:26;;;;;;;22.85;18.20;;;;;;;;;;10265441;28;20071;-62
2024/02/18 06:59:25;;;;;;;25.58;19.00;;;;;;;;;;10257173;28;20068;-62
2024/02/18 07:04:25;;;;;;;30.33;21.25;;;;;;;;;;10252063;28;20143;-62
2024/02/18 07:09:23;;;;;;;27.63;21.25;;;;;;;;;;10250012;28;20529;-62
2024/02/18 07:14:21;;;;;;;26.85;20.67;;;;;;;;;;10256287;28;20065;-61
2024/02/18 07:19:19;;;;;;;27.08;20.33;;;;;;;;;;10249605;28;20064;-63
2024/02/18 07:24:20;;;;;;;31.10;21.58;;;;;;;;;;10246741;28;20507;-62
2024/02/18 07:29:18;;;;;;;42.80;32.42;;;;;;;;;;10248402;28;20072;-63
2024/02/18 07:34:16;;;;;;;53.22;41.45;;;;;;;;;;10246849;28;20068;-62
2024/02/18 07:39:15;;;;;;;57.25;38.92;;;;;;;;;;10245473;28;20099;-63
2024/02/18 07:44:14;;;;;;;34.97;27.95;;;;;;;;;;10250552;28;20077;-63
2024/02/18 07:49:15;;;;;;;33.75;24.65;;;;;;;;;;10248656;28;20522;-62
2024/02/18 07:54:14;;;;;;;30.95;23.63;;;;;;;;;;10249555;28;20075;-62
2024/02/18 07:59:12;;;;;;;39.08;25.67;;;;;;;;;;10250091;28;20088;-62
2024/02/18 08:04:12;;;;;;;35.10;24.83;;;;;;;;;;10248901;28;20073;-64
2024/02/18 08:09:10;;;;;;;32.58;24.50;;;;;;;;;;10254097;28;20057;-63
2024/02/18 08:14:08;;;;;;;35.30;27.33;;;;;;;;;;10252814;28;20084;-62
2024/02/18 08:19:06;;;;;;;31.33;24.20;;;;;;;;;;10248965;28;20514;-62
2024/02/18 08:24:07;;;;;;;32.15;25.23;;;;;;;;;;10248901;28;20084;-63
2024/02/18 08:29:05;;;;;;;37.63;29.45;;;;;;;;;;10259061;28;20534;-61
2024/02/18 08:34:03;;;;;;;30.90;22.63;;;;;;;;;;10254316;28;20515;-61
2024/02/18 08:39:02;;;;;;;27.73;20.67;;;;;;;;;;10255766;28;20573;-62
2024/02/18 08:44:01;;;;;;;31.73;22.75;;;;;;;;;;10253196;28;20456;-62
2024/02/18 08:48:59;;;;;;;31.90;24.08;;;;;;;;;;10259975;28;20069;-62
2024/02/18 08:53:58;;;;;;;36.65;27.38;;;;;;;;;;10251858;28;20064;-63
2024/02/18 08:58:56;;;;;;;41.58;27.80;;;;;;;;;;10256047;28;20552;-62
2024/02/18 09:03:56;;;;;;;53.70;37.97;;;;;;;;;;10253770;28;20543;-63
2024/02/18 09:08:54;;;;;;;43.13;32.97;;;;;;;;;;10255988;28;20079;-63
2024/02/18 09:13:52;;;;;;;54.35;37.92;;;;;;;;;;10256746;28;20491;-63
2024/02/18 09:18:50;;;;;;;52.85;36.35;;;;;;;;;;10252271;28;20072;-63
2024/02/18 09:23:50;;;;;;;47.42;36.63;;;;;;;;;;10255187;28;20538;-63
2024/02/18 09:28:48;;;;;;;46.78;33.58;;;;;;;;;;10255314;28;20076;-63
2024/02/18 09:33:47;;;;;;;40.60;29.25;;;;;;;;;;10257422;28;20084;-63
2024/02/18 09:38:48;;;;;;;39.13;25.20;;;;;;;;;;10255796;28;20064;-62
2024/02/18 09:43:49;;;;;;;44.08;27.23;;;;;;;;;;10253975;28;20081;-63
2024/02/18 09:48:48;;;;;;;35.67;25.83;;;;;;;;;;10255857;28;20084;-63
2024/02/18 09:53:46;;;;;;;58.92;40.80;;;;;;;;;;10254890;28;20076;-63
2024/02/18 09:58:44;;;;;;;53.55;36.75;;;;;;;;;;10255571;28;20487;-64
2024/02/18 10:03:44;;;;;;;44.10;33.00;;;;;;;;;;10256729;28;20077;-63
2024/02/18 10:08:43;;;;;;;51.38;38.58;;;;;;;;;;10254128;28;20471;-63
2024/02/18 10:13:41;;;;;;;47.17;34.55;;;;;;;;;;10255953;28;20075;-63
2024/02/18 10:18:40;;;;;;;50.75;32.00;;;;;;;;;;10251721;28;20080;-64
2024/02/18 10:23:40;;;;;;;38.35;28.60;;;;;;;;;;10255366;28;20470;-63
2024/02/18 10:28:38;;;;;;;37.88;25.48;;;;;;;;;;10252819;28;20085;-63
2024/02/18 10:33:41;;;;;;;41.78;29.05;;;;;;;;;;10244371;28;20088;-63
2024/02/18 10:38:43;;;;;;;33.83;26.25;;;;;;;;;;10247552;28;20073;-63
2024/02/18 10:43:46;;;;;;;38.72;27.55;;;;;;;;;;10246789;28;20076;-62
2024/02/18 10:48:45;;;;;;;50.63;33.80;;;;;;;;;;10249906;28;20073;-63
2024/02/18 10:53:46;;;;;;;39.63;29.02;;;;;;;;;;10252258;28;20061;-61
2024/02/18 10:58:50;;;;;;;36.08;27.33;;;;;;;;;;10251765;28;20081;-62
2024/02/18 11:03:51;;;;;;;44.58;34.22;;;;;;;;;;10249535;28;20096;-62
2024/02/18 11:08:51;;;;;;;43.47;30.05;;;;;;;;;;10252243;28;20484;-62
2024/02/18 11:13:51;;;;;;;43.42;31.80;;;;;;;;;;10250488;28;20061;-62
2024/02/18 11:18:49;;;;;;;41.55;31.35;;;;;;;;;;10252723;28;20760;-62
2024/02/18 11:23:48;;;;;;;51.63;35.45;;;;;;;;;;10251162;28;20085;-62
2024/02/18 11:28:48;;;;;;;48.85;35.17;;;;;;;;;;10252609;28;20076;-61
2024/02/18 11:33:46;;;;;;;48.88;34.28;;;;;;;;;;10253307;28;20084;-62
2024/02/18 11:38:45;;;;;;;51.17;38.38;;;;;;;;;;10250576;28;20080;-62
2024/02/18 11:43:44;;;;;;;42.50;30.95;;;;;;;;;;10247999;28;20077;-62
2024/02/18 11:48:43;;;;;;;43.55;33.92;;;;;;;;;;10250074;28;20069;-62
2024/02/18 11:53:42;;;;;;;40.47;32.60;;;;;;;;;;10254087;28;20069;-62
2024/02/18 11:58:40;;;;;;;42.80;32.30;;;;;;;;;;10250264;28;20080;-62
2024/02/18 12:03:39;;;;;;;50.05;32.65;;;;;;;;;;10258111;28;20080;-62
2024/02/18 12:08:39;;;;;;;50.92;34.80;;;;;;;;;;10258805;28;20100;-62
2024/02/18 12:13:37;;;;;;;66.30;44.45;;;;;;;;;;10254489;28;20069;-62
2024/02/18 12:18:36;;;;;;;37.30;27.92;;;;;;;;;;10256538;28;20083;-63
2024/02/18 12:23:39;;;;;;;31.15;24.92;;;;;;;;;;10258560;28;20123;-63
2024/02/18 12:28:39;;;;;;;39.80;28.48;;;;;;;;;;10257522;28;20498;-62
2024/02/18 12:33:38;;;;;;;40.92;31.17;;;;;;;;;;10255996;28;20080;-63
2024/02/18 12:38:36;;;;;;;27.80;21.90;;;;;;;;;;10258233;28;20069;-62
2024/02/18 12:43:39;;;;;;;24.48;21.48;;;;;;;;;;10253603;28;20497;-62
2024/02/18 12:49:02;;;;;;;26.17;20.98;;;;;;;;;;10252124;28;20075;-62
2024/02/18 12:54:01;;;;;;;24.23;20.00;;;;;;;;;;10253104;28;20083;-63
2024/02/18 12:59:01;;;;;;;27.52;22.48;;;;;;;;;;10255421;28;20065;-63
2024/02/18 13:03:59;;;;;;;25.80;22.15;;;;;;;;;;10253851;28;20187;-62
2024/02/18 13:08:58;;;;;;;22.90;18.88;;;;;;;;;;10255679;28;20061;-62
2024/02/18 13:13:58;;;;;;;21.88;18.23;;;;;;;;;;10255494;28;20080;-63
2024/02/18 13:18:57;;;;;;;26.33;21.50;;;;;;;;;;10254491;28;20077;-63
2024/02/18 13:23:56;;;;;;;27.63;21.80;;;;;;;;;;10255089;28;20076;-63
2024/02/18 13:28:54;;;;;;;33.38;24.48;;;;;;;;;;10256696;28;20073;-63
2024/02/18 13:33:53;;;;;;;27.27;21.13;;;;;;;;;;10253722;28;20076;-63
2024/02/18 13:38:53;;;;;;;31.73;26.55;;;;;;;;;;10253877;28;20064;-63
2024/02/18 13:43:51;;;;;;;26.92;21.50;;;;;;;;;;10254756;28;20487;-61
2024/02/18 13:48:50;;;;;;;31.85;24.38;;;;;;;;;;10258290;28;20068;-62
2024/02/18 13:53:48;;;;;;;46.25;30.63;;;;;;;;;;10253949;28;20065;-63
2024/02/18 13:58:48;;;;;;;27.60;24.08;;;;;;;;;;10258367;28;20065;-62
2024/02/18 14:03:48;;;;;;;27.85;22.85;;;;;;;;;;10254417;28;20526;-62
2024/02/18 14:08:47;;;;;;;26.40;21.73;;;;;;;;;;10252495;28;20092;-62
2024/02/18 14:13:45;;;;;;;27.02;21.48;;;;;;;;;;10251678;28;20075;-62
2024/02/18 14:18:44;;;;;;;29.58;23.85;;;;;;;;;;10253535;28;20061;-63
2024/02/18 14:23:43;;;;;;;31.48;23.95;;;;;;;;;;10254986;28;20077;-62
2024/02/18 14:28:41;;;;;;;30.35;22.17;;;;;;;;;;10251113;28;20065;-62
2024/02/18 14:33:40;;;;;;;26.70;22.10;;;;;;;;;;10247436;28;20065;-63
2024/02/18 14:38:39;;;;;;;34.40;23.90;;;;;;;;;;10247930;28;20533;-62
2024/02/18 14:43:38;;;;;;;29.98;24.70;;;;;;;;;;10253856;28;20068;-62
2024/02/18 14:48:36;;;;;;;36.85;28.70;;;;;;;;;;10254641;28;20073;-63
2024/02/18 14:53:34;;;;;;;32.30;24.52;;;;;;;;;;10247637;28;20076;-63
2024/02/18 14:58:34;;;;;;;40.50;29.45;;;;;;;;;;10248897;28;20685;-63
2024/02/18 15:03:32;;;;;;;35.90;27.00;;;;;;;;;;10250682;28;20544;-62
2024/02/18 15:08:31;;;;;;;47.33;33.40;;;;;;;;;;10251272;28;20076;-64
2024/02/18 15:13:29;;;;;;;37.83;28.00;;;;;;;;;;10249440;28;20685;-62
2024/02/18 15:18:29;;;;;;;36.72;28.73;;;;;;;;;;10251267;28;20076;-62
2024/02/18 15:23:27;;;;;;;39.33;29.05;;;;;;;;;;10248109;28;20111;-62
2024/02/18 15:28:26;;;;;;;40.80;29.17;;;;;;;;;;10249303;28;20124;-62
2024/02/18 15:33:24;;;;;;;37.00;27.42;;;;;;;;;;10251126;28;20529;-62
2024/02/18 15:38:24;;;;;;;43.63;30.45;;;;;;;;;;10260622;28;20072;-61
2024/02/18 15:43:22;;;;;;;48.47;36.25;;;;;;;;;;10262198;28;20079;-61
2024/02/18 15:48:21;;;;;;;34.72;26.13;;;;;;;;;;10260303;28;20083;-62
2024/02/18 15:53:19;;;;;;;32.88;24.48;;;;;;;;;;10256866;28;20061;-62
2024/02/18 15:58:19;;;;;;;33.47;25.70;;;;;;;;;;10259894;28;20079;-62
2024/02/18 16:03:17;;;;;;;36.10;24.98;;;;;;;;;;10258172;28;20072;-62
2024/02/18 16:08:15;;;;;;;38.03;28.88;;;;;;;;;;10255883;28;20073;-62
2024/02/18 16:13:13;;;;;;;35.58;28.10;;;;;;;;;;10256622;28;20085;-61
2024/02/18 16:18:13;;;;;;;36.60;25.05;;;;;;;;;;10256079;28;20543;-62
2024/02/18 16:23:12;;;;;;;31.75;24.88;;;;;;;;;;10257178;28;20077;-62
2024/02/18 16:28:10;;;;;;;34.17;24.20;;;;;;;;;;10254955;28;20080;-62
2024/02/18 16:33:08;;;;;;;32.65;24.88;;;;;;;;;;10260010;28;20544;-62
2024/02/18 16:38:08;;;;;;;43.85;29.48;;;;;;;;;;10255884;28;20315;-61
2024/02/18 16:43:07;;;;;;;54.08;33.33;;;;;;;;;;10256111;28;20071;-61
2024/02/18 16:48:06;;;;;;;40.80;29.65;;;;;;;;;;10255392;28;20528;-62
2024/02/18 16:53:05;;;;;;;40.38;27.88;;;;;;;;;;10253469;28;20495;-62
2024/02/18 16:58:06;;;;;;;49.05;29.17;;;;;;;;;;10258363;28;20076;-62
2024/02/18 17:03:05;;;;;;;50.90;31.58;;;;;;;;;;10258010;28;20073;-62
2024/02/18 17:08:03;;;;;;;41.38;29.08;;;;;;;;;;10253724;28;20569;-62
2024/02/18 17:13:02;;;;;;;39.35;27.35;;;;;;;;;;10257531;28;20076;-62
2024/02/18 17:18:02;;;;;;;49.20;35.88;;;;;;;;;;10255692;28;20506;-62
2024/02/18 17:23:01;;;;;;;41.28;29.10;;;;;;;;;;10257670;28;20068;-62
2024/02/18 17:28:01;;;;;;;37.25;28.38;;;;;;;;;;10254991;28;20107;-63
2024/02/18 17:32:59;;;;;;;40.83;27.50;;;;;;;;;;10261077;28;20100;-63
2024/02/18 17:37:59;;;;;;;38.78;27.70;;;;;;;;;;10258339;28;20073;-63
2024/02/18 17:42:57;;;;;;;33.05;25.45;;;;;;;;;;10253320;28;20103;-62
2024/02/18 17:47:55;;;;;;;38.85;26.63;;;;;;;;;;10253866;28;20561;-63
2024/02/18 17:52:53;;;;;;;39.25;28.70;;;;;;;;;;10251518;28;20585;-62
2024/02/18 17:57:54;;;;;;;85.47;52.75;;;;;;;;;;10245590;28;20501;-63
2024/02/18 18:02:52;;;;;;;37.28;27.58;;;;;;;;;;10247484;28;20518;-61
2024/02/18 18:07:51;;;;;;;39.47;26.50;;;;;;;;;;10244723;28;20077;-61
2024/02/18 18:12:57;;;;;;;33.67;25.00;;;;;;;;;;10246439;28;20085;-61
2024/02/18 18:17:55;;;;;;;30.98;23.17;;;;;;;;;;10252174;28;20073;-62
2024/02/18 18:23:01;;;;;;;35.58;25.85;;;;;;;;;;10472380;27;20387;-63
2024/02/18 18:27:59;;;;;;;38.35;25.40;;;;;;;;;;10453207;27;20062;-63
2024/02/18 18:32:58;;;;;;;34.05;23.95;;;;;;;;;;10452483;27;20143;-62
2024/02/18 18:37:56;;;;;;;40.58;26.27;;;;;;;;;;10432549;27;20082;-62
2024/02/18 18:42:56;;;;;;;36.50;25.60;;;;;;;;;;10449251;27;20075;-62
2024/02/18 18:47:55;;;;;;;37.28;26.50;;;;;;;;;;10455824;27;20070;-61
2024/02/18 18:52:54;;;;;;;36.50;25.90;;;;;;;;;;10456237;27;20519;-63
2024/02/18 18:57:52;;;;;;;36.45;24.92;;;;;;;;;;10452621;27;20086;-62
2024/02/18 19:02:51;;;;;;;32.30;22.23;;;;;;;;;;10451407;27;20077;-62
2024/02/18 19:07:50;;;;;;;32.17;23.23;;;;;;;;;;10444992;27;20488;-62
2024/02/18 19:12:48;;;;;;;36.22;24.90;;;;;;;;;;10450606;27;20070;-63
2024/02/18 19:17:47;;;;;;;34.63;24.80;;;;;;;;;;10450971;27;20071;-63
2024/02/18 19:22:47;;;;;;;38.35;23.95;;;;;;;;;;10449067;27;20105;-63
2024/02/18 19:27:45;;;;;;;35.17;24.35;;;;;;;;;;10447715;27;20465;-63
2024/02/18 19:32:44;;;;;;;34.38;24.65;;;;;;;;;;10430377;27;20074;-63
2024/02/18 19:37:42;;;;;;;43.53;29.60;;;;;;;;;;10420749;27;20072;-62
2024/02/18 19:42:42;;;;;;;39.03;27.25;;;;;;;;;;10419731;27;20071;-62
2024/02/18 19:47:40;;;;;;;34.95;27.45;;;;;;;;;;10419108;27;20088;-63
2024/02/18 19:52:41;;;;;;;35.78;24.65;;;;;;;;;;10421606;27;20066;-63
2024/02/18 19:57:40;;;;;;;32.53;24.42;;;;;;;;;;10420965;27;20440;-63
2024/02/18 20:02:40;;;;;;;31.50;24.65;;;;;;;;;;10419097;27;20128;-63
2024/02/18 20:07:38;;;;;;;30.85;22.50;;;;;;;;;;10404152;27;20079;-63
2024/02/18 20:12:39;;;;;;;32.15;22.25;;;;;;;;;;10419690;27;20071;-63
2024/02/18 20:17:37;;;;;;;28.98;21.73;;;;;;;;;;10419932;27;20075;-63
2024/02/18 20:22:37;;;;;;;30.45;20.65;;;;;;;;;;10418728;27;20074;-63
2024/02/18 20:27:36;;;;;;;29.75;22.25;;;;;;;;;;10419525;27;20066;-63
2024/02/18 20:32:34;;;;;;;31.85;20.60;;;;;;;;;;10421722;27;20074;-63
2024/02/18 20:37:33;;;;;;;30.85;21.80;;;;;;;;;;10422500;27;20067;-62
2024/02/18 20:42:32;;;;;;;28.80;19.42;;;;;;;;;;10415814;27;20067;-64
2024/02/18 20:47:31;;;;;;;30.63;20.30;;;;;;;;;;10421771;27;20075;-62
2024/02/18 20:52:29;;;;;;;27.48;19.80;;;;;;;;;;10419376;27;20531;-62
2024/02/18 20:57:28;;;;;;;26.42;20.15;;;;;;;;;;10417202;27;20089;-62
2024/02/18 21:02:28;;;;;;;29.75;19.30;;;;;;;;;;10417533;27;20089;-63
2024/02/18 21:07:26;;;;;;;29.65;20.05;;;;;;;;;;10414758;27;20093;-63
2024/02/18 21:12:28;;;;;;;26.45;19.77;;;;;;;;;;10411212;27;20433;-62
2024/02/18 21:17:28;;;;;;;28.60;19.73;;;;;;;;;;10416115;27;20138;-63
2024/02/18 21:22:26;;;;;;;26.50;19.42;;;;;;;;;;10370286;28;20091;-63
2024/02/18 21:27:25;;;;;;;30.45;20.60;;;;;;;;;;10369560;28;20071;-62
2024/02/18 21:32:23;;;;;;;25.85;19.23;;;;;;;;;;10371333;28;20075;-62
2024/02/18 21:37:23;;;;;;;29.15;21.27;;;;;;;;;;10371420;28;20086;-62
2024/02/18 21:42:21;;;;;;;27.48;19.15;;;;;;;;;;10375231;28;20572;-62
2024/02/18 21:47:19;;;;;;;27.55;21.52;;;;;;;;;;10375461;28;20659;-62
2024/02/18 21:52:18;;;;;;;29.73;19.08;;;;;;;;;;10373919;28;20068;-61
2024/02/18 21:57:18;;;;;;;32.63;21.08;;;;;;;;;;10369213;28;20624;-61
2024/02/18 22:02:17;;;;;;;29.58;21.70;;;;;;;;;;10369454;28;20067;-62
2024/02/18 22:07:15;;;;;;;29.35;21.33;;;;;;;;;;10370620;28;20076;-63
2024/02/18 22:12:15;;;;;;;29.55;19.73;;;;;;;;;;10366863;28;20060;-63
2024/02/18 22:17:15;;;;;;;28.88;18.85;;;;;;;;;;10374460;28;20075;-62
2024/02/18 22:22:13;;;;;;;29.42;19.08;;;;;;;;;;10403006;28;20075;-62
2024/02/18 22:27:11;;;;;;;30.63;20.52;;;;;;;;;;10412522;28;20535;-63
2024/02/18 22:32:13;;;;;;;27.85;19.33;;;;;;;;;;10416427;28;20079;-62
2024/02/18 22:37:13;;;;;;;31.25;22.10;;;;;;;;;;10409805;28;20086;-61
2024/02/18 22:42:12;;;;;;;29.40;19.73;;;;;;;;;;10416866;28;20071;-62
2024/02/18 22:47:10;;;;;;;28.88;19.48;;;;;;;;;;10416948;28;20062;-62
2024/02/18 22:52:08;;;;;;;30.67;21.75;;;;;;;;;;10415072;28;20586;-62
2024/02/18 22:57:08;;;;;;;29.10;21.13;;;;;;;;;;10416877;28;20068;-61
2024/02/18 23:02:06;;;;;;;32.50;22.05;;;;;;;;;;10411384;28;20063;-62
2024/02/18 23:07:06;;;;;;;35.40;24.25;;;;;;;;;;10413170;27;20144;-62
2024/02/18 23:12:05;;;;;;;35.58;23.95;;;;;;;;;;10420455;27;20063;-62
2024/02/18 23:17:05;;;;;;;34.60;21.77;;;;;;;;;;10399855;27;20070;-61
2024/02/18 23:22:03;;;;;;;33.60;22.52;;;;;;;;;;10420262;27;20507;-62
2024/02/18 23:27:01;;;;;;;36.80;24.25;;;;;;;;;;10420266;27;20070;-62
2024/02/18 23:31:59;;;;;;;33.92;22.27;;;;;;;;;;10419057;27;20077;-61
2024/02/18 23:36:59;;;;;;;37.50;23.13;;;;;;;;;;10421958;27;20059;-62
2024/02/18 23:41:57;;;;;;;38.60;26.42;;;;;;;;;;10423944;27;20066;-62
2024/02/18 23:46:55;;;;;;;39.70;25.77;;;;;;;;;;10419245;27;20063;-63
2024/02/18 23:51:54;;;;;;;35.40;24.70;;;;;;;;;;10419384;27;20486;-63
2024/02/18 23:56:53;;;;;;;34.03;26.77;;;;;;;;;;10420945;27;20089;-62
